ADDS METAR Data INFO
IDs: Format: Raw Decoded Include TAF

Data at: 2305 UTC 15 Jul 2018

KBWG 152253Z AUTO 16008KT 10SM CLR 26/22 A2998 RMK AO2 SLP147 T02560222 $
KBWG 152153Z AUTO 22006KT 10SM CLR 26/22 A3002 RMK AO2 SLP160 T02560222 $
KBWG 152053Z AUTO 24007KT 10SM SCT050 SCT120 27/22 A3004 RMK AO2 SLP164 60002 T02670222 55006 $
KBWG 151953Z AUTO 24007KT 10SM CLR 27/24 A3002 RMK AO2 SLP158 T02720239 $
KBWG 151853Z AUTO 23004KT 10SM FEW045 SCT065 BKN090 26/23 A3001 RMK AO2 RAE36 SLP158 P0002 T02560233 $
KBWG 151802Z AUTO 19006KT 8SM -RA SCT120 24/23 A3004 RMK AO2 LTG DSNT N AND SW P0001 T02440233 $
KBWG 151753Z AUTO 17005KT 7SM VCTS -RA BKN120 24/23 A3005 RMK AO2 LTG DSNT NE-S TSE04B27E42 SLP172 P0011 6//// T02440233 10261 20233 58015 $
KBWG 151748Z AUTO 17005KT 7SM VCTS -RA SCT120 24/23 A3006 RMK AO2 LTG DSNT NE-S TSE04B27E42 P0011 $
KBWG 151730Z AUTO 17006KT 7SM -TSRA BKN110 24/23 A3007 RMK AO2 LTG DSNT S-NW TSE04B27 P0009 T02390228 $
KBWG 151710Z AUTO 19006KT 4SM VCTS RA BR OVC110 24/23 A3009 RMK AO2 LTG DSNT S-W TSE04 P0005 T02390228 $
KBWG 151653Z AUTO 20007KT 5SM TSRA BR SCT095 OVC110 23/22 A3010 RMK AO2 LTG DSNT S-NW TSB04E48B49 SLP186 T02330222 PNO $
KBWG 151644Z AUTO 19006KT 4SM TSRA BR FEW075 BKN095 OVC120 23/23 A3010 RMK AO2 LTG DSNT SW-NW TSB04 T02330228 PNO $
KBWG 151629Z AUTO 20006KT 2SM +TSRA BR FEW075 OVC100 23/23 A3010 RMK AO2 LTG DSNT S-NW TSB04 T02330228 PNO $
KBWG 151618Z AUTO 22008KT 3SM +TSRA BR FEW050 OVC100 23/22 A3010 RMK AO2 LTG DSNT SW-NW TSB04 T02330222 PNO $
KBWG 151611Z AUTO 23008KT 2 1/2SM TSRA BR FEW050 SCT085 OVC100 24/23 A3010 RMK AO2 LTG DSNT SW-NW TSB04 T02390228 PNO $
KBWG 151604Z AUTO 22007KT 1 3/4SM +TSRA BR FEW050 BKN085 OVC100 24/23 A3010 RMK AO2 LTG DSNT SW-NW TSB04 T02390233 PNO $
KBWG 151558Z AUTO 24007KT 1 1/4SM VCTS +RA BR FEW006 BKN070 OVC085 24/24 A3010 RMK AO2 LTG DSNT SW-NW P0000 T02440239
KBWG 151553Z AUTO 25008KT 2SM +RA BR FEW006 SCT060 OVC085 25/24 A3010 RMK AO2 LTG DSNT ALQDS RAB45 SLP186 P0000 T02500244
KBWG 151458Z AUTO 10003KT 7SM FEW008 SCT012 BKN095 26/24 A3007 RMK AO2 LTG DSNT NE AND W T02560239
KBWG 151453Z AUTO 09003KT 6SM BR BKN012 BKN095 26/24 A3007 RMK AO2 LTG DSNT NE AND W RAB10E47 TSB14E29 SLP176 P0000 60000 T02560239 50005
KBWG 151435Z AUTO 00000KT 5SM VCTS -RA BR BKN010 BKN028 OVC100 25/24 A3007 RMK AO2 LTG DSNT W-NE RAB10 TSB14E29 P0000 T02500239
KBWG 151425Z AUTO 00000KT 3SM -TSRA BR SCT010 BKN028 BKN050 25/23 A3008 RMK AO2 LTG DSNT W AND NW RAB10 TSB14 P0000 T02500233
KBWG 151416Z AUTO 28003KT 4SM -TSRA BR SCT008 BKN030 BKN100 25/23 A3008 RMK AO2 LTG DSNT NW RAB10 TSB14 P0000 T02500233
KBWG 151413Z AUTO 00000KT 7SM -RA SCT008 BKN028 BKN110 25/23 A3008 RMK AO2 LTG DSNT NW RAB10 P0000 T02500233
KBWG 151353Z AUTO 23008KT 8SM VCTS BKN008 25/24 A3008 RMK AO2 LTG DSNT N AND S AND NW CIG 006V011 SLP179 T02500239
KBWG 151349Z AUTO 23008KT 9SM VCTS BKN008 26/24 A3008 RMK AO2 LTG DSNT ALQDS
KBWG 151253Z AUTO 00000KT 9SM FEW006 BKN060 24/23 A3005 RMK AO2 LTG DSNT ALQDS RAB1158E24 TSE09 SLP170 P0000 T02440233
KBWG 151251Z AUTO 04003KT 9SM FEW006 FEW050 BKN060 24/23 A3005 RMK AO2 LTG DSNT ALQDS RAB1158E24 TSE09 P0000
KBWG 151244Z AUTO 00000KT 9SM VCTS SCT006 BKN055 24/23 A3006 RMK AO2 LTG DSNT ALQDS RAB1158E24 TSE09 P0000 T02440233
KBWG 151215Z AUTO 18007KT 7SM VCTS -RA BKN007 BKN026 OVC060 24/23 A3007 RMK AO2 LTG DSNT ALQDS RAB1158 TSE09 CIG 006V010 P0000 T02440233
KBWG 151202Z AUTO 20005KT 7SM -TSRA FEW009 BKN026 OVC050 25/23 A3007 RMK AO2 LTG DSNT S AND NW RAB1158 P0000 T02500233
KBWG 151153Z AUTO 22004KT 10SM TS FEW010 BKN025 OVC041 25/23 A3007 RMK AO2 LTG DSNT S-NW RAB1058E16 TSB47 SLP175 P0000 60000 T02500233 10272 20244 53013
KBWG 151147Z AUTO 24004KT 10SM TS BKN025 BKN042 OVC060 25/23 A3007 RMK AO2 LTG DSNT S-NW RAB1058E16 TSB47 P0000
KBWG 151144Z AUTO 27004KT 10SM VCTS SCT025 BKN042 OVC060 25/23 A3007 RMK AO2 LTG DSNT S-NW RAB1058E16 P0000 T02500233
KBWG 151127Z AUTO 20005KT 10SM FEW024 BKN046 OVC060 26/23 A3006 RMK AO2 LTG DSNT S-NW RAB1058E16 P0000 T02560233
KBWG 151112Z AUTO 22004KT 9SM VCTS -RA FEW028 BKN046 OVC110 26/23 A3006 RMK AO2 LTG DSNT S-NW RAB1058 P0000 T02560233
KBWG 151102Z AUTO 23004KT 4SM RA BR SCT028 BKN055 OVC110 25/23 A3006 RMK AO2 LTG DSNT S-W RAB1058 P0000 T02500233
KBWG 151053Z AUTO 22004KT 10SM BKN028 BKN041 OVC110 26/23 A3005 RMK AO2 LTG DSNT S-NW SLP170 T02560228
KBWG 151038Z AUTO 24004KT 10SM VCTS BKN028 BKN040 25/23 A3005 RMK AO2 LTG DSNT S AND SW T02500233
KBWG 151023Z AUTO 26003KT 10SM FEW050 25/23 A3005 RMK AO2 LTG DSNT SW T02500228
KBWG 151008Z AUTO 00000KT 10SM VCTS FEW050 FEW070 25/23 A3004 RMK AO2 LTG DSNT S-W T02500228
KBWG 150953Z AUTO 23004KT 10SM FEW050 SCT065 26/23 A3004 RMK AO2 LTG DSNT SW AND W SLP163 T02560228
KBWG 150853Z AUTO 00000KT 10SM CLR 25/23 A3003 RMK AO2 SLP161 T02500228 53001
KBWG 150753Z AUTO 00000KT 10SM CLR 26/23 A3003 RMK AO2 SLP159 T02610233
KBWG 150653Z AUTO 14003KT 10SM BKN049 26/23 A3002 RMK AO2 SLP158 T02560233
KBWG 150553Z AUTO 00000KT 10SM CLR 27/23 A3003 RMK AO2 SLP160 T02670233 10311 20267 403500206 56005
KBWG 150453Z AUTO 24004KT 10SM CLR 28/23 A3004 RMK AO2 SLP164 T02780233
KBWG 150353Z AUTO 19006KT 10SM CLR 29/23 A3003 RMK AO2 SLP160 T02890228
KBWG 150253Z AUTO 18007KT 10SM FEW060 29/22 A3004 RMK AO2 SLP165 T02940222 51012
KBWG 150153Z AUTO 00000KT 10SM CLR 28/23 A3004 RMK AO2 SLP166 T02830228
KBWG 150053Z AUTO 13004KT 10SM CLR 29/22 A3002 RMK AO2 SLP158 T02940222
KBWG 142353Z AUTO 08003KT 10SM CLR 31/21 A3001 RMK AO2 SLP154 T03110211 10350 20311 56008
KBWG 142253Z AUTO 09007KT 10SM CLR 33/21 A3001 RMK AO2 SLP154 T03330206
KBWG 142153Z AUTO 07005KT 10SM FEW050 34/21 A3002 RMK AO2 SLP160 T03390206
KBWG 142053Z AUTO VRB03KT 10SM CLR 34/21 A3003 RMK AO2 SLP162 T03390206 56019
KBWG 141953Z AUTO 12007KT 10SM CLR 34/21 A3004 RMK AO2 SLP165 T03390206
KBWG 141853Z AUTO 05004KT 10SM CLR 35/19 A3007 RMK AO2 SLP175 T03500194
KBWG 141753Z AUTO 03007KT 10SM FEW050 34/21 A3009 RMK AO2 SLP182 T03390206 10339 20222 58005
KBWG 141653Z AUTO 00000KT 10SM CLR 33/20 A3010 RMK AO2 SLP185 T03280200
KBWG 141553Z AUTO 00000KT 10SM CLR 31/20 A3010 RMK AO2 SLP186 T03060200
KBWG 141453Z AUTO 24003KT 10SM CLR 29/19 A3011 RMK AO2 SLP188 T02940194 53005
KBWG 141353Z AUTO 00000KT 10SM CLR 27/22 A3010 RMK AO2 SLP187 T02720217
KBWG 141253Z AUTO 00000KT 8SM CLR 23/22 A3009 RMK AO2 SLP183 T02330217
KBWG 141153Z AUTO 00000KT 7SM CLR 22/21 A3009 RMK AO2 SLP183 T02220206 10233 20206 52009